createdAt,value
2022-12-18T00:01:24.999Z,-9.60
2022-12-18T00:03:53.545Z,-9.79
2022-12-18T00:06:23.337Z,-9.88
2022-12-18T00:08:50.394Z,-9.95
2022-12-18T00:11:22.806Z,-9.95
2022-12-18T00:13:50.882Z,-9.99
2022-12-18T00:16:21.445Z,-10.00
2022-12-18T00:18:50.094Z,-9.91
2022-12-18T00:21:17.569Z,-9.92
2022-12-18T00:23:45.384Z,-9.96
2022-12-18T00:26:15.949Z,-10.04
2022-12-18T00:28:43.634Z,-10.06
2022-12-18T00:31:13.433Z,-10.04
2022-12-18T00:33:40.909Z,-10.03
2022-12-18T00:36:11.788Z,-10.04
2022-12-18T00:38:39.166Z,-10.02
2022-12-18T00:41:08.996Z,-10.03
2022-12-18T00:43:37.395Z,-10.05
2022-12-18T00:46:04.977Z,-10.05
2022-12-18T00:48:33.106Z,-10.06
2022-12-18T00:51:00.186Z,-10.11
2022-12-18T00:53:27.235Z,-10.18
2022-12-18T00:55:54.403Z,-10.17
2022-12-18T00:58:21.441Z,-10.22
2022-12-18T01:00:48.551Z,-10.24
2022-12-18T01:03:15.854Z,-10.25
2022-12-18T01:05:43.474Z,-10.26
2022-12-18T01:08:10.706Z,-10.25
2022-12-18T01:10:41.869Z,-10.27
2022-12-18T01:13:09.197Z,-10.35
2022-12-18T01:15:36.405Z,-10.39
2022-12-18T01:18:06.931Z,-10.42
2022-12-18T01:20:34.178Z,-10.42
2022-12-18T01:23:01.202Z,-10.38
2022-12-18T01:25:28.397Z,-10.33
2022-12-18T01:27:55.509Z,-10.27
2022-12-18T01:30:22.700Z,-10.30
2022-12-18T01:32:49.854Z,-10.33
2022-12-18T01:35:17.153Z,-10.37
2022-12-18T01:37:44.331Z,-10.40
2022-12-18T01:40:11.772Z,-10.39
2022-12-18T01:42:39.109Z,-10.37
2022-12-18T01:45:12.330Z,-10.40
2022-12-18T01:47:45.869Z,-10.44
2022-12-18T01:50:23.627Z,-10.47
2022-12-18T01:52:57.432Z,-10.48
2022-12-18T01:55:26.602Z,-10.48
2022-12-18T01:57:55.323Z,-10.52
2022-12-18T02:00:23.764Z,-10.51
2022-12-18T02:02:51.068Z,-10.56
2022-12-18T02:05:30.362Z,-10.53
2022-12-18T02:08:03.587Z,-10.54
2022-12-18T02:10:35.654Z,-10.59
2022-12-18T02:13:27.691Z,-10.63
2022-12-18T02:16:06.547Z,-10.62
2022-12-18T02:18:37.727Z,-10.67
2022-12-18T02:21:17.329Z,-10.71
2022-12-18T02:23:57.951Z,-10.75
2022-12-18T02:26:51.030Z,-10.79
2022-12-18T02:29:22.793Z,-10.85
2022-12-18T02:31:58.610Z,-10.90
2022-12-18T02:34:29.225Z,-10.89
2022-12-18T02:36:57.604Z,-10.94
2022-12-18T02:39:26.297Z,-10.97
2022-12-18T02:41:53.621Z,-10.94
2022-12-18T02:44:20.947Z,-10.95
2022-12-18T02:46:51.634Z,-10.91
2022-12-18T02:49:37.936Z,-10.90
2022-12-18T02:52:34.744Z,-10.91
2022-12-18T02:55:19.881Z,-11.00
2022-12-18T02:57:55.192Z,-11.05
2022-12-18T03:00:44.095Z,-11.05
2022-12-18T03:03:17.557Z,-11.00
2022-12-18T03:05:59.191Z,-10.95
2022-12-18T03:08:30.385Z,-10.92
2022-12-18T03:11:07.769Z,-10.93
2022-12-18T03:13:38.547Z,-10.95
2022-12-18T03:16:07.775Z,-10.97
2022-12-18T03:18:48.960Z,-10.96
2022-12-18T03:21:18.545Z,-10.92
2022-12-18T03:23:49.068Z,-10.95
2022-12-18T03:26:20.519Z,-10.96
2022-12-18T03:28:52.567Z,-11.02
2022-12-18T03:31:21.708Z,-11.06
2022-12-18T03:33:55.002Z,-11.07
2022-12-18T03:36:23.681Z,-11.11
2022-12-18T03:38:51.348Z,-11.13
2022-12-18T03:41:24.538Z,-11.16
2022-12-18T03:44:14.675Z,-11.16
2022-12-18T03:47:03.002Z,-11.14
2022-12-18T03:49:36.668Z,-11.14
2022-12-18T03:52:07.278Z,-11.17
2022-12-18T03:54:34.866Z,-11.14
2022-12-18T03:57:09.877Z,-11.17
2022-12-18T03:59:38.690Z,-11.18
2022-12-18T04:02:07.755Z,-11.20
2022-12-18T04:04:36.947Z,-11.21
2022-12-18T04:07:04.397Z,-11.22
2022-12-18T04:09:33.189Z,-11.24
2022-12-18T04:12:00.263Z,-11.27
2022-12-18T04:14:27.470Z,-11.29
2022-12-18T04:16:54.930Z,-11.29
2022-12-18T04:19:21.964Z,-11.29
2022-12-18T04:21:49.068Z,-11.34
2022-12-18T04:24:16.227Z,-11.29
2022-12-18T04:26:43.251Z,-11.34
2022-12-18T04:29:10.304Z,-11.32
2022-12-18T04:31:37.388Z,-11.32
2022-12-18T04:34:04.669Z,-11.37
2022-12-18T04:36:31.787Z,-11.43
2022-12-18T04:38:58.845Z,-11.51
2022-12-18T04:41:25.924Z,-11.58
2022-12-18T04:43:53.096Z,-11.63
2022-12-18T04:46:20.175Z,-11.67
2022-12-18T04:48:47.909Z,-11.71
2022-12-18T04:51:15.520Z,-11.71
2022-12-18T04:53:43.052Z,-11.72
2022-12-18T04:56:15.349Z,-11.75
2022-12-18T04:58:44.654Z,-11.73
2022-12-18T05:01:13.373Z,-11.75
2022-12-18T05:03:41.150Z,-11.76
2022-12-18T05:06:08.489Z,-11.76
2022-12-18T05:08:35.640Z,-11.77
2022-12-18T05:11:05.329Z,-11.78
2022-12-18T05:13:33.227Z,-11.79
2022-12-18T05:16:01.102Z,-11.81
2022-12-18T05:18:28.432Z,-11.83
2022-12-18T05:20:55.738Z,-11.82
2022-12-18T05:23:23.902Z,-11.82
2022-12-18T05:25:59.770Z,-11.82
2022-12-18T05:28:27.937Z,-11.89
2022-12-18T05:30:57.741Z,-11.92
2022-12-18T05:33:26.523Z,-11.93
2022-12-18T05:35:55.469Z,-11.92
2022-12-18T05:38:23.891Z,-11.91
2022-12-18T05:40:51.874Z,-11.92
2022-12-18T05:43:21.517Z,-11.89
2022-12-18T05:45:49.134Z,-11.86
2022-12-18T05:48:16.895Z,-11.86
2022-12-18T05:50:46.448Z,-11.88
2022-12-18T05:53:15.279Z,-11.90
2022-12-18T05:55:42.910Z,-11.90
2022-12-18T05:58:11.307Z,-11.96
2022-12-18T06:00:40.868Z,-11.97
2022-12-18T06:03:09.659Z,-11.99
2022-12-18T06:05:41.956Z,-12.00
2022-12-18T06:08:09.503Z,-12.01
2022-12-18T06:10:37.373Z,-12.01
2022-12-18T06:13:05.599Z,-11.99
2022-12-18T06:15:33.058Z,-12.00
2022-12-18T06:18:01.820Z,-12.03
2022-12-18T06:20:33.205Z,-12.06
2022-12-18T06:23:01.020Z,-12.07
2022-12-18T06:25:28.208Z,-12.06
2022-12-18T06:27:55.296Z,-12.08
2022-12-18T06:30:22.330Z,-12.08
2022-12-18T06:32:54.661Z,-12.06
2022-12-18T06:35:23.917Z,-12.06
2022-12-18T06:37:51.047Z,-12.08
2022-12-18T06:40:18.318Z,-12.11
2022-12-18T06:42:45.382Z,-12.14
2022-12-18T06:45:12.518Z,-12.13
2022-12-18T06:47:39.566Z,-12.15
2022-12-18T06:50:07.229Z,-12.18
2022-12-18T06:52:34.856Z,-12.17
2022-12-18T06:55:02.012Z,-12.17
2022-12-18T06:57:29.369Z,-12.18
2022-12-18T06:59:56.514Z,-12.18
2022-12-18T07:02:23.652Z,-12.16
2022-12-18T07:04:50.808Z,-12.17
2022-12-18T07:07:18.037Z,-12.18
2022-12-18T07:09:45.118Z,-12.20
2022-12-18T07:12:12.247Z,-12.21
2022-12-18T07:14:39.313Z,-12.21
2022-12-18T07:17:06.586Z,-12.21
2022-12-18T07:19:34.515Z,-12.25
2022-12-18T07:22:02.074Z,-12.26
2022-12-18T07:24:30.019Z,-12.21
2022-12-18T07:26:57.048Z,-12.25
2022-12-18T07:29:24.135Z,-12.23
2022-12-18T07:31:51.224Z,-12.19
2022-12-18T07:34:18.403Z,-12.20
2022-12-18T07:36:45.473Z,-12.16
2022-12-18T07:39:13.075Z,-12.13
2022-12-18T07:41:46.681Z,-12.11
2022-12-18T07:44:14.135Z,-12.07
2022-12-18T07:46:41.307Z,-12.02
2022-12-18T07:49:08.385Z,-11.97
2022-12-18T07:51:35.531Z,-11.95
2022-12-18T07:54:02.600Z,-11.91
2022-12-18T07:56:31.152Z,-11.85
2022-12-18T07:59:00.073Z,-11.82
2022-12-18T08:01:27.874Z,-11.81
2022-12-18T08:03:55.125Z,-11.80
2022-12-18T08:06:23.339Z,-11.78
2022-12-18T08:08:55.687Z,-11.74
2022-12-18T08:11:24.587Z,-11.69
2022-12-18T08:13:51.702Z,-11.61
2022-12-18T08:16:19.877Z,-11.53
2022-12-18T08:18:47.837Z,-11.49
2022-12-18T08:21:16.195Z,-11.42
2022-12-18T08:23:43.920Z,-11.36
2022-12-18T08:26:12.277Z,-11.32
2022-12-18T08:28:39.952Z,-11.24
2022-12-18T08:31:08.105Z,-11.15
2022-12-18T08:33:36.107Z,-11.07
2022-12-18T08:36:06.414Z,-10.96
2022-12-18T08:38:34.474Z,-10.85
2022-12-18T08:41:02.704Z,-10.76
2022-12-18T08:43:48.764Z,-10.61
2022-12-18T08:46:16.021Z,-10.50
2022-12-18T08:48:43.291Z,-10.37
2022-12-18T08:51:13.271Z,-10.25
2022-12-18T08:53:40.690Z,-10.08
2022-12-18T08:56:08.723Z,-9.92
2022-12-18T08:58:35.782Z,-9.76
2022-12-18T09:01:04.476Z,-9.62
2022-12-18T09:03:32.711Z,-9.49
2022-12-18T09:06:00.487Z,-9.32
2022-12-18T09:08:28.247Z,-9.19
2022-12-18T09:10:56.137Z,-9.04
2022-12-18T09:13:23.891Z,-8.87
2022-12-18T09:15:53.458Z,-8.68
2022-12-18T09:18:21.962Z,-8.53
2022-12-18T09:20:51.102Z,-8.38
2022-12-18T09:23:18.404Z,-8.20
2022-12-18T09:25:45.662Z,-8.03
2022-12-18T09:28:18.607Z,-7.86
2022-12-18T09:30:50.187Z,-7.72
2022-12-18T09:33:18.149Z,-7.56
2022-12-18T09:35:46.785Z,-7.43
2022-12-18T09:38:16.414Z,-7.26
2022-12-18T09:40:49.617Z,-7.11
2022-12-18T09:43:25.732Z,-6.96
2022-12-18T09:45:55.879Z,-6.83
2022-12-18T09:48:26.812Z,-6.69
2022-12-18T09:50:57.737Z,-6.56
2022-12-18T09:53:27.860Z,-6.40
2022-12-18T09:55:55.793Z,-6.16
2022-12-18T09:58:40.689Z,-5.90
2022-12-18T10:01:13.437Z,-5.57
2022-12-18T10:03:40.867Z,-5.23
2022-12-18T10:06:10.050Z,-5.02
2022-12-18T10:08:43.029Z,-4.84
2022-12-18T10:11:28.736Z,-4.72
2022-12-18T10:14:13.020Z,-4.53
2022-12-18T10:17:00.894Z,-4.32
2022-12-18T10:19:57.703Z,-4.11
2022-12-18T10:22:33.036Z,-3.95
2022-12-18T10:25:11.111Z,-3.82
2022-12-18T10:27:38.339Z,-3.67
2022-12-18T10:30:21.853Z,-3.51
2022-12-18T10:32:48.953Z,-3.36
2022-12-18T10:35:22.720Z,-3.24
2022-12-18T10:38:12.668Z,-3.07
2022-12-18T10:40:50.617Z,-2.89
2022-12-18T10:43:22.576Z,-2.71
2022-12-18T10:46:08.609Z,-2.53
2022-12-18T10:48:49.206Z,-2.48
2022-12-18T10:51:31.579Z,-2.42
2022-12-18T10:54:15.917Z,-2.29
2022-12-18T10:56:43.736Z,-2.21
2022-12-18T10:59:14.439Z,-2.08
2022-12-18T11:01:58.778Z,-2.06
2022-12-18T11:04:31.580Z,-2.03
2022-12-18T11:07:07.886Z,-1.97
2022-12-18T11:09:39.587Z,-1.99
2022-12-18T11:12:18.377Z,-1.93
2022-12-18T11:14:48.172Z,-1.95
2022-12-18T11:17:26.287Z,-1.87
2022-12-18T11:19:56.427Z,-1.77
2022-12-18T11:22:23.724Z,-1.69
2022-12-18T11:25:30.065Z,-1.55
2022-12-18T11:28:24.212Z,-1.57
2022-12-18T11:31:29.611Z,-1.45
2022-12-18T11:34:28.678Z,-1.34
2022-12-18T11:36:59.031Z,-1.35
2022-12-18T11:39:39.650Z,-1.32
2022-12-18T11:42:13.832Z,-1.25
2022-12-18T11:44:52.966Z,-1.16
2022-12-18T11:47:31.274Z,-1.20
2022-12-18T11:50:01.964Z,-1.27
2022-12-18T11:52:41.209Z,-1.34
2022-12-18T11:55:17.196Z,-1.31
2022-12-18T11:57:56.306Z,-1.33
2022-12-18T12:00:23.937Z,-1.39
2022-12-18T12:03:39.891Z,-1.41
2022-12-18T12:06:30.753Z,-1.34
2022-12-18T12:09:06.969Z,-1.32
2022-12-18T12:11:52.437Z,-1.27
2022-12-18T12:14:38.486Z,-1.27
2022-12-18T12:17:08.508Z,-1.26
2022-12-18T12:19:49.476Z,-1.26
2022-12-18T12:22:25.596Z,-1.28
2022-12-18T12:25:28.006Z,-1.34
2022-12-18T12:28:51.102Z,-1.39
2022-12-18T12:31:20.634Z,-1.39
2022-12-18T12:34:02.335Z,-1.41
2022-12-18T12:36:48.090Z,-1.39
2022-12-18T12:39:18.866Z,-1.46
2022-12-18T12:42:06.083Z,-1.47
2022-12-18T12:44:41.921Z,-1.64
2022-12-18T12:47:22.939Z,-1.75
2022-12-18T12:49:50.928Z,-1.81
2022-12-18T12:52:25.351Z,-1.80
2022-12-18T12:54:52.738Z,-1.81
2022-12-18T12:57:24.432Z,-1.82
2022-12-18T13:00:01.037Z,-1.85
2022-12-18T13:02:52.315Z,-1.86
2022-12-18T13:05:38.814Z,-2.01
2022-12-18T13:08:11.234Z,-2.06
2022-12-18T13:10:40.542Z,-2.08
2022-12-18T13:13:10.984Z,-2.10
2022-12-18T13:15:46.097Z,-2.16
2022-12-18T13:18:18.957Z,-2.22
2022-12-18T13:20:56.342Z,-2.24
2022-12-18T13:23:29.898Z,-2.37
2022-12-18T13:29:07.892Z,-2.50
2022-12-18T13:32:01.453Z,-2.59
2022-12-18T13:34:31.885Z,-2.58
2022-12-18T13:37:39.435Z,-2.57
2022-12-18T13:40:45.064Z,-2.56
2022-12-18T13:43:22.215Z,-2.52
2022-12-18T13:46:51.000Z,-2.45
2022-12-18T13:49:27.161Z,-2.46
2022-12-18T13:51:55.888Z,-2.49
2022-12-18T13:54:36.730Z,-2.48
2022-12-18T13:57:07.328Z,-2.51
2022-12-18T13:59:41.138Z,-2.52
2022-12-18T14:02:18.084Z,-2.65
2022-12-18T14:04:47.361Z,-2.72
2022-12-18T14:07:19.826Z,-2.75
2022-12-18T14:09:50.511Z,-2.90
2022-12-18T14:12:39.644Z,-2.95
2022-12-18T14:15:18.752Z,-3.01
2022-12-18T14:17:45.900Z,-3.10
2022-12-18T14:20:16.645Z,-3.19
2022-12-18T14:22:47.874Z,-3.21
2022-12-18T14:25:19.116Z,-3.23
2022-12-18T14:27:51.673Z,-3.24
2022-12-18T14:30:24.618Z,-3.27
2022-12-18T14:33:27.734Z,-3.32
2022-12-18T14:36:01.823Z,-3.32
2022-12-18T14:38:34.323Z,-3.31
2022-12-18T14:41:02.212Z,-3.37
2022-12-18T14:43:32.751Z,-3.39
2022-12-18T14:46:00.282Z,-3.41
2022-12-18T14:48:40.642Z,-3.44
2022-12-18T14:51:15.696Z,-3.47
2022-12-18T14:53:53.998Z,-3.56
2022-12-18T14:56:24.773Z,-3.54
2022-12-18T14:58:55.184Z,-3.54
2022-12-18T15:01:34.783Z,-3.67
2022-12-18T15:04:02.995Z,-3.68
2022-12-18T15:06:40.987Z,-3.78
2022-12-18T15:09:25.567Z,-3.77
2022-12-18T15:12:00.668Z,-3.84
2022-12-18T15:14:41.698Z,-3.90
2022-12-18T15:17:23.324Z,-3.91
2022-12-18T15:19:53.983Z,-3.99
2022-12-18T15:22:28.161Z,-4.07
2022-12-18T15:24:56.728Z,-4.13
2022-12-18T15:27:36.591Z,-4.18
2022-12-18T15:30:09.766Z,-4.27
2022-12-18T15:32:41.012Z,-4.27
2022-12-18T15:35:18.599Z,-4.30
2022-12-18T15:37:45.952Z,-4.33
2022-12-18T15:40:17.895Z,-4.37
2022-12-18T15:43:04.054Z,-4.36
2022-12-18T15:45:31.495Z,-4.36
2022-12-18T15:47:58.602Z,-4.33
2022-12-18T15:50:25.857Z,-4.32
2022-12-18T15:52:55.869Z,-4.31
2022-12-18T15:55:43.212Z,-4.25
2022-12-18T15:58:11.165Z,-4.25
2022-12-18T16:00:40.545Z,-4.24
2022-12-18T16:03:07.835Z,-4.21
2022-12-18T16:05:35.111Z,-4.20
2022-12-18T16:08:02.159Z,-4.20
2022-12-18T16:10:29.445Z,-4.24
2022-12-18T16:12:56.593Z,-4.20
2022-12-18T16:15:24.890Z,-4.16
2022-12-18T16:17:52.836Z,-4.13
2022-12-18T16:20:21.888Z,-4.14
2022-12-18T16:22:49.647Z,-4.15
2022-12-18T16:25:23.718Z,-4.15
2022-12-18T16:27:51.336Z,-4.16
2022-12-18T16:30:21.722Z,-4.16
2022-12-18T16:32:49.132Z,-4.18
2022-12-18T16:35:17.336Z,-4.16
2022-12-18T16:37:44.885Z,-4.16
2022-12-18T16:40:14.296Z,-4.12
2022-12-18T16:42:42.467Z,-4.12
2022-12-18T16:45:11.886Z,-4.11
2022-12-18T16:47:39.878Z,-4.14
2022-12-18T16:50:08.222Z,-4.13
2022-12-18T16:52:36.021Z,-4.13
2022-12-18T16:55:03.743Z,-4.12
2022-12-18T16:57:30.828Z,-4.10
2022-12-18T17:00:04.436Z,-4.08
2022-12-18T17:02:32.700Z,-4.06
2022-12-18T17:04:59.999Z,-4.09
2022-12-18T17:07:28.204Z,-4.07
2022-12-18T17:09:55.632Z,-4.05
2022-12-18T17:12:23.051Z,-3.99
2022-12-18T17:14:50.242Z,-3.96
2022-12-18T17:17:22.606Z,-3.94
2022-12-18T17:19:51.495Z,-3.92
2022-12-18T17:22:19.188Z,-3.93
2022-12-18T17:24:47.106Z,-3.91
2022-12-18T17:27:14.234Z,-3.87
2022-12-18T17:29:47.384Z,-3.85
2022-12-18T17:32:16.855Z,-3.81
2022-12-18T17:34:43.971Z,-3.81
2022-12-18T17:37:11.330Z,-3.80
2022-12-18T17:39:38.478Z,-3.79
2022-12-18T17:42:05.577Z,-3.79
2022-12-18T17:44:34.351Z,-3.75
2022-12-18T17:47:01.791Z,-3.73
2022-12-18T17:49:29.115Z,-3.73
2022-12-18T17:51:56.126Z,-3.72
2022-12-18T17:54:23.219Z,-3.70
2022-12-18T17:56:50.427Z,-3.63
2022-12-18T17:59:17.539Z,-3.62
2022-12-18T18:01:45.587Z,-3.58
2022-12-18T18:04:13.464Z,-3.53
2022-12-18T18:06:41.282Z,-3.51
2022-12-18T18:09:16.332Z,-3.49
2022-12-18T18:12:06.206Z,-3.49
2022-12-18T18:14:33.583Z,-3.48
2022-12-18T18:17:04.923Z,-3.44
2022-12-18T18:19:32.957Z,-3.41
2022-12-18T18:22:01.378Z,-3.39
2022-12-18T18:24:29.172Z,-3.32
2022-12-18T18:26:56.491Z,-3.27
2022-12-18T18:29:26.970Z,-3.23
2022-12-18T18:31:55.167Z,-3.18
2022-12-18T18:34:24.549Z,-3.12
2022-12-18T18:36:52.259Z,-3.00
2022-12-18T18:39:19.906Z,-2.93
2022-12-18T18:41:48.370Z,-2.91
2022-12-18T18:44:20.673Z,-2.83
2022-12-18T18:46:54.070Z,-2.75
2022-12-18T18:49:21.282Z,-2.73
2022-12-18T18:51:50.394Z,-2.60
2022-12-18T18:54:17.463Z,-2.51
2022-12-18T18:57:18.933Z,-2.43
2022-12-18T18:59:32.270Z,-2.28
2022-12-18T19:02:00.651Z,-2.23
2022-12-18T19:04:33.068Z,-2.11
2022-12-18T19:07:00.357Z,-1.98
2022-12-18T19:09:28.629Z,-1.93
2022-12-18T19:12:14.752Z,-1.82
2022-12-18T19:14:42.284Z,-1.67
2022-12-18T19:17:09.629Z,-1.56
2022-12-18T19:19:37.289Z,-1.48
2022-12-18T19:22:04.469Z,-1.43
2022-12-18T19:24:31.617Z,-1.39
2022-12-18T19:26:58.638Z,-1.32
2022-12-18T19:29:25.771Z,-1.20
2022-12-18T19:31:52.959Z,-1.09
2022-12-18T19:34:20.262Z,-0.98
2022-12-18T19:36:47.435Z,-0.93
2022-12-18T19:39:16.959Z,-0.91
2022-12-18T19:41:44.711Z,-0.92
2022-12-18T19:44:14.261Z,-0.88
2022-12-18T19:46:42.921Z,-0.88
2022-12-18T19:49:11.492Z,-0.84
2022-12-18T19:51:45.335Z,-0.81
2022-12-18T19:54:16.670Z,-0.82
2022-12-18T19:56:45.789Z,-0.80
2022-12-18T19:59:13.005Z,-0.79
2022-12-18T20:01:40.481Z,-0.72
2022-12-18T20:04:07.984Z,-0.69
2022-12-18T20:06:46.092Z,-0.68
2022-12-18T20:09:13.245Z,-0.69
2022-12-18T20:11:41.980Z,-0.65
2022-12-18T20:14:10.842Z,-0.63
2022-12-18T20:16:38.288Z,-0.65
2022-12-18T20:19:05.678Z,-0.67
2022-12-18T20:21:32.854Z,-0.69
2022-12-18T20:24:01.223Z,-0.65
2022-12-18T20:26:28.547Z,-0.68
2022-12-18T20:28:55.866Z,-0.71
2022-12-18T20:31:23.697Z,-0.64
2022-12-18T20:33:52.101Z,-0.58
2022-12-18T20:36:25.946Z,-0.58
2022-12-18T20:38:58.166Z,-0.60
2022-12-18T20:41:37.602Z,-0.56
2022-12-18T20:44:21.644Z,-0.60
2022-12-18T20:46:53.168Z,-0.56
2022-12-18T20:49:20.308Z,-0.60
2022-12-18T20:51:50.286Z,-0.57
2022-12-18T20:54:17.404Z,-0.57
2022-12-18T20:56:44.461Z,-0.50
2022-12-18T20:59:11.671Z,-0.44
2022-12-18T21:01:40.097Z,-0.45
2022-12-18T21:04:13.427Z,-0.37
2022-12-18T21:06:42.015Z,-0.38
2022-12-18T21:09:10.014Z,-0.39
2022-12-18T21:11:55.681Z,-0.42
2022-12-18T21:14:25.433Z,-0.41
2022-12-18T21:16:53.819Z,-0.42
2022-12-18T21:19:23.422Z,-0.45
2022-12-18T21:21:51.785Z,-0.39
2022-12-18T21:24:19.121Z,-0.37
2022-12-18T21:26:47.757Z,-0.36
2022-12-18T21:29:20.452Z,-0.34
2022-12-18T21:31:48.370Z,-0.31
2022-12-18T21:34:21.731Z,-0.25
2022-12-18T21:36:49.517Z,-0.22
2022-12-18T21:39:16.943Z,-0.19
2022-12-18T21:42:03.607Z,-0.16
2022-12-18T21:44:30.784Z,-0.02
2022-12-18T21:47:12.316Z,0.07
2022-12-18T21:49:50.576Z,0.09
2022-12-18T21:52:17.650Z,0.12
2022-12-18T21:54:44.799Z,0.13
2022-12-18T21:57:13.874Z,0.18
2022-12-18T21:59:42.382Z,0.15
2022-12-18T22:02:15.238Z,0.18
2022-12-18T22:04:43.338Z,0.31
2022-12-18T22:07:11.279Z,0.32
2022-12-18T22:09:38.418Z,0.30
2022-12-18T22:12:05.929Z,0.31
2022-12-18T22:14:32.995Z,0.28
2022-12-18T22:17:00.122Z,0.27
2022-12-18T22:19:28.221Z,0.23
2022-12-18T22:21:55.464Z,0.19
2022-12-18T22:24:24.490Z,0.19
2022-12-18T22:26:54.834Z,0.26
2022-12-18T22:29:47.243Z,0.30
2022-12-18T22:32:17.008Z,0.36
2022-12-18T22:34:49.323Z,0.34
2022-12-18T22:37:16.379Z,0.33
2022-12-18T22:39:43.830Z,0.41
2022-12-18T22:42:11.434Z,0.31
2022-12-18T22:44:39.664Z,0.26
2022-12-18T22:47:07.468Z,0.27
2022-12-18T22:49:35.611Z,0.35
2022-12-18T22:52:04.400Z,0.39
2022-12-18T22:54:31.485Z,0.35
2022-12-18T22:56:58.643Z,0.42
2022-12-18T22:59:26.766Z,0.45
2022-12-18T23:01:56.265Z,0.48
2022-12-18T23:04:30.633Z,0.47
2022-12-18T23:07:05.362Z,0.41
2022-12-18T23:09:32.724Z,0.39
2022-12-18T23:12:00.275Z,0.38
2022-12-18T23:14:28.317Z,0.47
2022-12-18T23:16:55.494Z,0.49
2022-12-18T23:19:23.693Z,0.52
2022-12-18T23:21:51.507Z,0.51
2022-12-18T23:24:18.612Z,0.47
2022-12-18T23:26:45.683Z,0.46
2022-12-18T23:29:13.806Z,0.44
2022-12-18T23:31:40.889Z,0.38
2022-12-18T23:34:08.158Z,0.37
2022-12-18T23:36:45.694Z,0.33
2022-12-18T23:39:15.495Z,0.27
2022-12-18T23:41:57.314Z,0.23
2022-12-18T23:44:24.498Z,0.20
2022-12-18T23:46:51.696Z,0.13
2022-12-18T23:49:18.780Z,0.12
2022-12-18T23:51:45.843Z,0.09
2022-12-18T23:54:12.886Z,0.04
2022-12-18T23:56:39.928Z,0.03
2022-12-18T23:59:06.974Z,-0.10
